Aidadiva — ICDH — position and weather

sailwx.info

Track history (hours):
 
Tides and Currents Weather Stations Pressure Air Temp Water Temp Dewpoint Dewpoint Depression Visibility Wind Speed Wind Dir Waves Ship Positions

Aidadiva

Last reported at 2017-Dec-08 02:49 UTC. Time now 2017-Dec-11 07:52 UTC.
Position N 16°54' W 062°26'.

Length 252 m; draft 7.2 m.

Type: Ship. MMSI: 247187700.

Date/timePositionNaut miles runAvg speedWind from/ knotsBaromVisibWave heightAir tempDewpointWater temp
2017-Dec-08 02:49N 16°54' W 062°26'412.7
2017-Dec-08 02:30N 16°57' W 062°23'813.1
2017-Dec-08 01:55N 17°02' W 062°17'511.9
2017-Dec-08 01:30N 17°05' W 062°13'611.9
2017-Dec-08 01:00N 17°09' W 062°08'612.1
2017-Dec-08 00:31N 17°12' W 062°02'612.2
2017-Dec-08 00:00N 17°09' W 061°56'5 9.3
2017-Dec-07 23:30N 17°08' W 061°52'1 2.1
2017-Dec-07 23:00N 17°07' W 061°51'0 0.0
2017-Dec-07 22:30N 17°07' W 061°51'0 0.0
2017-Dec-07 21:59N 17°07' W 061°51'0 0.0
2017-Dec-07 21:29N 17°07' W 061°51'0 0.0
2017-Dec-07 20:59N 17°07' W 061°51'0 0.0
2017-Dec-07 20:29N 17°07' W 061°51'0 0.0
2017-Dec-07 19:58N 17°07' W 061°51'0 0.0
2017-Dec-07 19:28N 17°07' W 061°51'0 0.0
2017-Dec-07 18:58N 17°07' W 061°51'0 0.0
2017-Dec-07 18:28N 17°07' W 061°51'0 0.0
2017-Dec-07 17:58N 17°07' W 061°51'0 0.0
2017-Dec-07 17:30N 17°07' W 061°51'0 0.0
2017-Dec-07 17:00N 17°07' W 061°51'0 0.0
2017-Dec-07 16:30N 17°07' W 061°51'0 0.0
2017-Dec-07 16:00N 17°07' W 061°51'0 0.0
2017-Dec-07 15:29N 17°07' W 061°51'0 0.0
2017-Dec-07 14:59N 17°07' W 061°51'0 0.0
2017-Dec-07 14:29N 17°07' W 061°51'0 0.0
2017-Dec-07 13:59N 17°07' W 061°51'0 0.0
2017-Dec-07 13:26N 17°07' W 061°51'0 0.0
2017-Dec-07 12:58N 17°07' W 061°51'0 0.0
2017-Dec-07 12:28N 17°07' W 061°51'0 0.0
2017-Dec-07 11:58N 17°07' W 061°51'0 0.0
2017-Dec-07 11:30N 17°07' W 061°51'1 2.7
2017-Dec-07 11:00N 17°08' W 061°52'3 6.6
2017-Dec-07 10:30N 17°09' W 061°55'3 6.4
2017-Dec-07 09:59N 17°07' W 061°58'3 5.6
2017-Dec-07 09:29N 17°05' W 061°58'2 3.6
2017-Dec-07 09:00N 17°03' W 061°58'3 5.7
2017-Dec-07 08:30N 16°60' W 061°58'611.8
2017-Dec-07 08:00N 16°54' W 061°57'611.9
2017-Dec-07 07:30N 16°48' W 061°56'611.7
2017-Dec-07 07:00N 16°43' W 061°54'510.7
2017-Dec-07 06:30N 16°38' W 061°55'611.6
2017-Dec-07 06:00N 16°32' W 061°58'612.3
2017-Dec-07 05:30N 16°26' W 061°60'611.7
2017-Dec-07 05:00N 16°21' W 062°02'810.7
2017-Dec-07 04:18N 16°13' W 062°01'2211.5
2017-Dec-07 02:24N 15°55' W 061°49'22 9.0
2017-Dec-06 23:55N 16°09' W 061°31'  
Track history (hours):
 
Tides and Currents Weather Stations Pressure Air Temp Water Temp Dewpoint Dewpoint Depression Visibility Wind Speed Wind Dir Waves Ship Positions

Aidadiva

Last reported at 2017-Dec-08 02:49 UTC. Time now 2017-Dec-11 07:52 UTC.
Position N 16°54' W 062°26'.

Length 252 m; draft 7.2 m.

Type: Ship. MMSI: 247187700.

Date/timePositionNaut miles runAvg speedWind from/ knotsBaromVisibWave heightAir tempDewpointWater temp
2017-Dec-08 02:49N 16°54' W 062°26'412.7
2017-Dec-08 02:30N 16°57' W 062°23'813.1
2017-Dec-08 01:55N 17°02' W 062°17'511.9
2017-Dec-08 01:30N 17°05' W 062°13'611.9
2017-Dec-08 01:00N 17°09' W 062°08'612.1
2017-Dec-08 00:31N 17°12' W 062°02'612.2
2017-Dec-08 00:00N 17°09' W 061°56'5 9.3
2017-Dec-07 23:30N 17°08' W 061°52'1 2.1
2017-Dec-07 23:00N 17°07' W 061°51'0 0.0
2017-Dec-07 22:30N 17°07' W 061°51'0 0.0
2017-Dec-07 21:59N 17°07' W 061°51'0 0.0
2017-Dec-07 21:29N 17°07' W 061°51'0 0.0
2017-Dec-07 20:59N 17°07' W 061°51'0 0.0
2017-Dec-07 20:29N 17°07' W 061°51'0 0.0
2017-Dec-07 19:58N 17°07' W 061°51'0 0.0
2017-Dec-07 19:28N 17°07' W 061°51'0 0.0
2017-Dec-07 18:58N 17°07' W 061°51'0 0.0
2017-Dec-07 18:28N 17°07' W 061°51'0 0.0
2017-Dec-07 17:58N 17°07' W 061°51'0 0.0
2017-Dec-07 17:30N 17°07' W 061°51'0 0.0
2017-Dec-07 17:00N 17°07' W 061°51'0 0.0
2017-Dec-07 16:30N 17°07' W 061°51'0 0.0
2017-Dec-07 16:00N 17°07' W 061°51'0 0.0
2017-Dec-07 15:29N 17°07' W 061°51'0 0.0
2017-Dec-07 14:59N 17°07' W 061°51'0 0.0
2017-Dec-07 14:29N 17°07' W 061°51'0 0.0
2017-Dec-07 13:59N 17°07' W 061°51'0 0.0
2017-Dec-07 13:26N 17°07' W 061°51'0 0.0
2017-Dec-07 12:58N 17°07' W 061°51'0 0.0
2017-Dec-07 12:28N 17°07' W 061°51'0 0.0
2017-Dec-07 11:58N 17°07' W 061°51'0 0.0
2017-Dec-07 11:30N 17°07' W 061°51'1 2.7
2017-Dec-07 11:00N 17°08' W 061°52'3 6.6
2017-Dec-07 10:30N 17°09' W 061°55'3 6.4
2017-Dec-07 09:59N 17°07' W 061°58'3 5.6
2017-Dec-07 09:29N 17°05' W 061°58'2 3.6
2017-Dec-07 09:00N 17°03' W 061°58'3 5.7
2017-Dec-07 08:30N 16°60' W 061°58'611.8
2017-Dec-07 08:00N 16°54' W 061°57'611.9
2017-Dec-07 07:30N 16°48' W 061°56'611.7
2017-Dec-07 07:00N 16°43' W 061°54'510.7
2017-Dec-07 06:30N 16°38' W 061°55'611.6
2017-Dec-07 06:00N 16°32' W 061°58'612.3
2017-Dec-07 05:30N 16°26' W 061°60'611.7
2017-Dec-07 05:00N 16°21' W 062°02'810.7
2017-Dec-07 04:18N 16°13' W 062°01'2211.5
2017-Dec-07 02:24N 15°55' W 061°49'22 9.0
2017-Dec-06 23:55N 16°09' W 061°31'  

Dump ship's entire track history